This is the latest recevied weather packets stored in our database for station/object KF4PPJ. If no packets are shown the sender has not sent any weather packets the latest 10 day(s).
| Time | Temp. | Humidity | Pressure | Rain* | Wind** | Luminosity | Snow |
|---|---|---|---|---|---|---|---|
| 1777222855 | 12.78° C | 47% | 1012.9 hPa | 0 mm | - | 486 W/m² | - |
| 1777222554 | 12.22° C | 48% | 1013.1 hPa | 0 mm | - | 451 W/m² | - |
| 1777221644 | 11.67° C | 49% | 1012.9 hPa | 0 mm | - | 380 W/m² | - |
| 1777220435 | 11.11° C | 49% | 1012.8 hPa | 0 mm | - | 336 W/m² | - |
| 1777219832 | 11.11° C | 49% | 1012.8 hPa | 0 mm | - | 286 W/m² | - |
| 1777218921 | 10.56° C | 51% | 1013 hPa | 0 mm | - | 125 W/m² | - |
| 1777218618 | 11.11° C | 51% | 1012.8 hPa | 0 mm | - | 60 W/m² | - |
| 1777216800 | 10° C | 56% | 1012.9 hPa | 0 mm | - | 42 W/m² | - |
| 1777216191 | 8.89° C | 59% | 1012.8 hPa | 0 mm | - | 39 W/m² | - |
| 1777215890 | 8.33° C | 61% | 1012.8 hPa | 0 mm | - | 39 W/m² | - |
| 1777215587 | 7.22° C | 64% | 1012.8 hPa | 0 mm | - | 38 W/m² | - |
| 1777212857 | 3.89° C | 81% | 1012.4 hPa | 0 mm | - | 27 W/m² | - |
| 1777211943 | 3.33° C | 81% | 1012.6 hPa | 0 mm | - | 23 W/m² | - |
| 1777211338 | 3.89° C | 80% | 1012.6 hPa | 0 mm | - | 20 W/m² | - |
| 1777210730 | 3.33° C | 80% | 1012.4 hPa | 0 mm | - | 16 W/m² | - |
| 1777209513 | 3.33° C | 80% | 1012 hPa | 0 mm | - | 8 W/m² | - |
| 1777209209 | 3.33° C | 80% | 1012 hPa | 0 mm | - | 5 W/m² | - |
| 1777208299 | 3.89° C | 80% | 1011.9 hPa | 0 mm | - | 0 W/m² | - |
| 1777207995 | 3.89° C | 80% | 1011.9 hPa | 0 mm | - | 0 W/m² | - |
| 1777207690 | 3.89° C | 81% | 1011.9 hPa | 0 mm | - | 0 W/m² | - |
| 1777206776 | 3.89° C | 80% | 1012 hPa | 0 mm | - | 0 W/m² | - |
| 1777206475 | 3.89° C | 79% | 1012 hPa | 0 mm | - | 0 W/m² | - |
| 1777206170 | 3.89° C | 79% | 1012.1 hPa | 0 mm | - | 0 W/m² | - |
| 1777205564 | 3.89° C | 79% | 1012 hPa | 0 mm | - | 0 W/m² | - |
| 1777205260 | 3.89° C | 79% | 1012 hPa | 0 mm | - | 0 W/m² | - |
* Rain latest hour (hover to see other rain measurements)
** Current wind speed in m/s (hover to see current wind gust speed)